Martinsville, IN

6:09 AM EST on January 17, 2017 (GMT -0500)
Blue Bluff | | Change Station

Elev 604 ft 39.46 °N, 86.42 °W | Updated 5 minutes ago

Overcast
Overcast
59.5 °F
Feels Like 59.5 °F
N
11.0
Wind Variable Wind from WSW
Gusts 18.0 mph

Today
High -- | Low -- °F
--% Chance of Precip.
Yesterday
High -- | Low -- °F
Precip. -- in
Pressure 29.81 in
Visibility 10.0 miles
Clouds Few 1000 ft
Mostly Cloudy 1500 ft
Overcast 2000 ft
Dew Point 57 °F
Humidity 91%
Rainfall 0.05 in
Snow Depth Not available.
8:03 AM 5:49 PM
Waning Gibbous, 73% visible
METAR KIND 171054Z 22012KT 10SM -RA FEW010 BKN015 OVC020 14/13 A2981 RMK AO2 RAB10E19B54 SLP094 P0000 T01390128 $
Pressure 29.81 in
Visibility 10.0 miles
Clouds Few 1000 ft
Mostly Cloudy 1500 ft
Overcast 2000 ft
Dew Point 57 °F
Humidity 91%
Rainfall 0.05 in
Snow Depth Not available.
8:03 AM 5:49 PM
Waning Gibbous, 73% visible
METAR KIND 171054Z 22012KT 10SM -RA FEW010 BKN015 OVC020 14/13 A2981 RMK AO2 RAB10E19B54 SLP094 P0000 T01390128 $

Get Your Daily Forecast Email!

Thanks for signing up!

Be on the lookout for a verification email in your inbox.

You'll start receiving the daily forecast at 8 AM.

×

10-Day Weather Forecast

Almanac

Astronomy

Jan. 17, 2017 Rise Set
Actual Time
Civil Twilight
Nautical Twilight
Astronomical Twilight
Moon
Length of Visible Light
Length of Day
Tomorrow will be .
, % of the Moon is Illuminated

Today's Extremes

State Highs State Lows

Community

WunderPhotos

Upload Photos

1,962,540 photos uploaded!

WunderBlog® & News

Nearby

Air Quality

  Air Quality AQ Index Pollutant
Not available.

Snow Depth

Station Depth Elevation

Earthquake Activity

City Distance Mag. Time & Date
Minimum magnitude displayed is 2.5.

Coastal Water Temperatures

Place Temperature

Stations

Nearby Weather Stations

Station Location Temp. Windchill Dew Point Humidity Wind Precip. Elev Updated Type
                   

Watches & Warnings

There are currently no watches in effect.